sensor_id;sensor_type;location;lat;lon;timestamp;P1;durP1;ratioP1;P2;durP2;ratioP2
17595;SDS011;8916;47.086;15.920;2022-09-09T00:02:26;5.47;;;0.80;;
17595;SDS011;8916;47.086;15.920;2022-09-09T00:04:58;5.22;;;0.63;;
17595;SDS011;8916;47.086;15.920;2022-09-09T00:07:41;6.30;;;0.80;;
17595;SDS011;8916;47.086;15.920;2022-09-09T00:10:17;2.92;;;0.90;;
17595;SDS011;8916;47.086;15.920;2022-09-09T00:12:55;5.78;;;1.10;;
17595;SDS011;8916;47.086;15.920;2022-09-09T00:15:30;2.65;;;0.70;;
17595;SDS011;8916;47.086;15.920;2022-09-09T00:18:13;2.80;;;0.85;;
17595;SDS011;8916;47.086;15.920;2022-09-09T00:20:53;7.82;;;1.10;;
17595;SDS011;8916;47.086;15.920;2022-09-09T00:26:02;3.47;;;1.13;;
17595;SDS011;8916;47.086;15.920;2022-09-09T00:28:41;3.88;;;0.88;;
17595;SDS011;8916;47.086;15.920;2022-09-09T00:31:19;5.97;;;1.08;;
17595;SDS011;8916;47.086;15.920;2022-09-09T00:33:55;5.13;;;0.63;;
17595;SDS011;8916;47.086;15.920;2022-09-09T00:36:29;4.32;;;0.82;;
17595;SDS011;8916;47.086;15.920;2022-09-09T00:39:02;2.45;;;0.95;;
17595;SDS011;8916;47.086;15.920;2022-09-09T00:41:36;6.88;;;1.48;;
17595;SDS011;8916;47.086;15.920;2022-09-09T00:44:27;12.02;;;1.75;;
17595;SDS011;8916;47.086;15.920;2022-09-09T00:47:14;3.95;;;1.00;;
17595;SDS011;8916;47.086;15.920;2022-09-09T00:50:00;4.45;;;0.80;;
17595;SDS011;8916;47.086;15.920;2022-09-09T00:52:41;6.25;;;0.73;;
17595;SDS011;8916;47.086;15.920;2022-09-09T00:55:19;2.55;;;0.82;;
17595;SDS011;8916;47.086;15.920;2022-09-09T00:57:56;3.45;;;1.08;;
17595;SDS011;8916;47.086;15.920;2022-09-09T01:00:26;10.38;;;1.58;;
17595;SDS011;8916;47.086;15.920;2022-09-09T01:03:04;6.03;;;1.58;;
17595;SDS011;8916;47.086;15.920;2022-09-09T01:05:57;4.65;;;1.60;;
17595;SDS011;8916;47.086;15.920;2022-09-09T01:08:39;10.07;;;1.80;;
17595;SDS011;8916;47.086;15.920;2022-09-09T01:11:25;7.40;;;2.20;;
17595;SDS011;8916;47.086;15.920;2022-09-09T01:14:05;5.22;;;2.45;;
17595;SDS011;8916;47.086;15.920;2022-09-09T01:16:53;6.93;;;2.75;;
17595;SDS011;8916;47.086;15.920;2022-09-09T01:19:27;11.63;;;3.28;;
17595;SDS011;8916;47.086;15.920;2022-09-09T01:22:12;5.07;;;1.95;;
17595;SDS011;8916;47.086;15.920;2022-09-09T01:25:01;5.35;;;2.25;;
17595;SDS011;8916;47.086;15.920;2022-09-09T01:28:11;9.88;;;2.50;;
17595;SDS011;8916;47.086;15.920;2022-09-09T01:30:46;16.52;;;2.83;;
17595;SDS011;8916;47.086;15.920;2022-09-09T01:33:18;4.45;;;2.10;;
17595;SDS011;8916;47.086;15.920;2022-09-09T01:35:48;4.60;;;1.92;;
17595;SDS011;8916;47.086;15.920;2022-09-09T01:38:28;8.57;;;1.70;;
17595;SDS011;8916;47.086;15.920;2022-09-09T01:41:00;3.35;;;1.73;;
17595;SDS011;8916;47.086;15.920;2022-09-09T01:43:41;4.28;;;1.55;;
17595;SDS011;8916;47.086;15.920;2022-09-09T01:46:13;5.97;;;1.40;;
17595;SDS011;8916;47.086;15.920;2022-09-09T01:48:43;2.13;;;1.60;;
17595;SDS011;8916;47.086;15.920;2022-09-09T01:51:14;5.10;;;0.95;;
17595;SDS011;8916;47.086;15.920;2022-09-09T01:53:43;6.07;;;1.30;;
17595;SDS011;8916;47.086;15.920;2022-09-09T01:56:20;3.50;;;1.40;;
17595;SDS011;8916;47.086;15.920;2022-09-09T01:59:12;3.97;;;1.40;;
17595;SDS011;8916;47.086;15.920;2022-09-09T02:02:03;2.47;;;1.08;;
17595;SDS011;8916;47.086;15.920;2022-09-09T02:04:47;4.23;;;1.33;;
17595;SDS011;8916;47.086;15.920;2022-09-09T02:07:28;5.85;;;1.08;;
17595;SDS011;8916;47.086;15.920;2022-09-09T02:10:19;12.10;;;2.10;;
17595;SDS011;8916;47.086;15.920;2022-09-09T02:13:04;5.05;;;2.80;;
17595;SDS011;8916;47.086;15.920;2022-09-09T02:15:42;12.07;;;5.97;;
17595;SDS011;8916;47.086;15.920;2022-09-09T02:18:16;18.63;;;11.57;;
17595;SDS011;8916;47.086;15.920;2022-09-09T02:20:53;13.30;;;7.88;;
17595;SDS011;8916;47.086;15.920;2022-09-09T02:23:25;10.60;;;5.80;;
17595;SDS011;8916;47.086;15.920;2022-09-09T02:25:56;6.82;;;4.45;;
17595;SDS011;8916;47.086;15.920;2022-09-09T02:28:27;5.85;;;3.70;;
17595;SDS011;8916;47.086;15.920;2022-09-09T02:31:01;10.05;;;3.22;;
17595;SDS011;8916;47.086;15.920;2022-09-09T02:33:38;8.93;;;3.07;;
17595;SDS011;8916;47.086;15.920;2022-09-09T02:36:12;4.88;;;2.70;;
17595;SDS011;8916;47.086;15.920;2022-09-09T02:38:45;8.88;;;3.35;;
17595;SDS011;8916;47.086;15.920;2022-09-09T02:41:24;11.02;;;3.08;;
17595;SDS011;8916;47.086;15.920;2022-09-09T02:44:00;3.97;;;2.55;;
17595;SDS011;8916;47.086;15.920;2022-09-09T02:46:35;5.35;;;2.30;;
17595;SDS011;8916;47.086;15.920;2022-09-09T02:49:19;6.45;;;2.30;;
17595;SDS011;8916;47.086;15.920;2022-09-09T02:52:04;5.70;;;2.33;;
17595;SDS011;8916;47.086;15.920;2022-09-09T02:54:37;8.20;;;3.45;;
17595;SDS011;8916;47.086;15.920;2022-09-09T02:57:11;10.90;;;4.50;;
17595;SDS011;8916;47.086;15.920;2022-09-09T02:59:48;7.10;;;4.47;;
17595;SDS011;8916;47.086;15.920;2022-09-09T03:02:21;9.98;;;5.22;;
17595;SDS011;8916;47.086;15.920;2022-09-09T03:04:54;15.10;;;5.28;;
17595;SDS011;8916;47.086;15.920;2022-09-09T03:07:23;12.23;;;5.22;;
17595;SDS011;8916;47.086;15.920;2022-09-09T03:09:52;11.32;;;4.63;;
17595;SDS011;8916;47.086;15.920;2022-09-09T03:12:25;9.18;;;4.00;;
17595;SDS011;8916;47.086;15.920;2022-09-09T03:14:54;4.60;;;3.33;;
17595;SDS011;8916;47.086;15.920;2022-09-09T03:17:25;6.53;;;3.47;;
17595;SDS011;8916;47.086;15.920;2022-09-09T03:19:55;5.28;;;3.55;;
17595;SDS011;8916;47.086;15.920;2022-09-09T03:22:25;14.18;;;3.53;;
17595;SDS011;8916;47.086;15.920;2022-09-09T03:24:56;9.68;;;2.83;;
17595;SDS011;8916;47.086;15.920;2022-09-09T03:27:27;7.78;;;2.13;;
17595;SDS011;8916;47.086;15.920;2022-09-09T03:29:57;3.72;;;2.00;;
17595;SDS011;8916;47.086;15.920;2022-09-09T03:32:30;4.40;;;2.40;;
17595;SDS011;8916;47.086;15.920;2022-09-09T03:34:59;4.13;;;2.42;;
17595;SDS011;8916;47.086;15.920;2022-09-09T03:37:28;8.93;;;2.50;;
17595;SDS011;8916;47.086;15.920;2022-09-09T03:39:58;7.70;;;2.10;;
17595;SDS011;8916;47.086;15.920;2022-09-09T03:42:28;9.23;;;2.33;;
17595;SDS011;8916;47.086;15.920;2022-09-09T03:45:00;8.40;;;2.05;;
17595;SDS011;8916;47.086;15.920;2022-09-09T03:47:31;5.75;;;2.10;;
17595;SDS011;8916;47.086;15.920;2022-09-09T03:50:05;9.63;;;2.33;;
17595;SDS011;8916;47.086;15.920;2022-09-09T03:52:42;5.53;;;1.77;;
17595;SDS011;8916;47.086;15.920;2022-09-09T03:55:18;10.05;;;2.45;;
17595;SDS011;8916;47.086;15.920;2022-09-09T03:57:47;5.85;;;1.95;;
17595;SDS011;8916;47.086;15.920;2022-09-09T04:00:18;6.93;;;2.35;;
17595;SDS011;8916;47.086;15.920;2022-09-09T04:02:53;8.45;;;1.80;;
17595;SDS011;8916;47.086;15.920;2022-09-09T04:05:25;4.82;;;1.52;;
17595;SDS011;8916;47.086;15.920;2022-09-09T04:07:54;9.23;;;1.80;;
17595;SDS011;8916;47.086;15.920;2022-09-09T04:10:24;9.65;;;2.20;;
17595;SDS011;8916;47.086;15.920;2022-09-09T04:12:55;4.35;;;2.50;;
17595;SDS011;8916;47.086;15.920;2022-09-09T04:15:24;7.95;;;2.45;;
17595;SDS011;8916;47.086;15.920;2022-09-09T04:17:54;4.80;;;2.60;;
17595;SDS011;8916;47.086;15.920;2022-09-09T04:20:24;6.10;;;3.55;;
17595;SDS011;8916;47.086;15.920;2022-09-09T04:22:53;10.13;;;4.45;;
17595;SDS011;8916;47.086;15.920;2022-09-09T04:25:23;13.52;;;5.70;;
17595;SDS011;8916;47.086;15.920;2022-09-09T04:27:53;15.35;;;6.32;;
17595;SDS011;8916;47.086;15.920;2022-09-09T04:30:24;12.23;;;6.03;;
17595;SDS011;8916;47.086;15.920;2022-09-09T04:32:56;13.10;;;4.93;;
17595;SDS011;8916;47.086;15.920;2022-09-09T04:35:25;11.80;;;4.43;;
17595;SDS011;8916;47.086;15.920;2022-09-09T04:37:56;8.27;;;4.03;;
17595;SDS011;8916;47.086;15.920;2022-09-09T04:40:26;5.15;;;3.13;;
17595;SDS011;8916;47.086;15.920;2022-09-09T04:42:57;5.95;;;4.13;;
17595;SDS011;8916;47.086;15.920;2022-09-09T04:45:27;13.77;;;3.30;;
17595;SDS011;8916;47.086;15.920;2022-09-09T04:47:57;14.68;;;2.67;;
17595;SDS011;8916;47.086;15.920;2022-09-09T04:50:26;5.57;;;2.53;;
17595;SDS011;8916;47.086;15.920;2022-09-09T04:52:59;8.88;;;2.85;;
17595;SDS011;8916;47.086;15.920;2022-09-09T04:55:30;5.10;;;2.20;;
17595;SDS011;8916;47.086;15.920;2022-09-09T04:58:02;6.60;;;1.92;;
17595;SDS011;8916;47.086;15.920;2022-09-09T05:00:33;10.70;;;2.33;;
17595;SDS011;8916;47.086;15.920;2022-09-09T05:03:07;7.78;;;2.53;;
17595;SDS011;8916;47.086;15.920;2022-09-09T05:05:37;5.22;;;2.70;;
17595;SDS011;8916;47.086;15.920;2022-09-09T05:08:07;10.02;;;2.97;;
17595;SDS011;8916;47.086;15.920;2022-09-09T05:10:38;8.85;;;2.58;;
17595;SDS011;8916;47.086;15.920;2022-09-09T05:13:09;6.53;;;2.63;;
17595;SDS011;8916;47.086;15.920;2022-09-09T05:15:38;5.95;;;2.67;;
17595;SDS011;8916;47.086;15.920;2022-09-09T05:18:09;10.07;;;2.58;;
17595;SDS011;8916;47.086;15.920;2022-09-09T05:20:38;7.45;;;2.28;;
17595;SDS011;8916;47.086;15.920;2022-09-09T05:23:10;7.47;;;2.63;;
17595;SDS011;8916;47.086;15.920;2022-09-09T05:25:40;11.07;;;4.30;;
17595;SDS011;8916;47.086;15.920;2022-09-09T05:28:09;9.88;;;3.70;;
17595;SDS011;8916;47.086;15.920;2022-09-09T05:30:39;10.68;;;4.55;;
17595;SDS011;8916;47.086;15.920;2022-09-09T05:33:09;9.00;;;5.07;;
17595;SDS011;8916;47.086;15.920;2022-09-09T05:35:38;6.15;;;4.10;;
17595;SDS011;8916;47.086;15.920;2022-09-09T05:38:08;6.20;;;4.18;;
17595;SDS011;8916;47.086;15.920;2022-09-09T05:40:37;8.65;;;4.05;;
17595;SDS011;8916;47.086;15.920;2022-09-09T05:43:06;5.38;;;3.35;;
17595;SDS011;8916;47.086;15.920;2022-09-09T05:45:35;7.25;;;3.63;;
17595;SDS011;8916;47.086;15.920;2022-09-09T05:48:05;8.35;;;3.70;;
17595;SDS011;8916;47.086;15.920;2022-09-09T05:50:36;10.63;;;3.90;;
17595;SDS011;8916;47.086;15.920;2022-09-09T05:53:05;12.02;;;3.53;;
17595;SDS011;8916;47.086;15.920;2022-09-09T05:55:34;4.05;;;3.20;;
17595;SDS011;8916;47.086;15.920;2022-09-09T05:58:04;5.68;;;2.97;;
17595;SDS011;8916;47.086;15.920;2022-09-09T06:00:33;8.65;;;3.03;;
17595;SDS011;8916;47.086;15.920;2022-09-09T06:03:02;6.70;;;3.53;;
17595;SDS011;8916;47.086;15.920;2022-09-09T06:05:32;12.52;;;3.20;;
17595;SDS011;8916;47.086;15.920;2022-09-09T06:08:05;11.30;;;2.90;;
17595;SDS011;8916;47.086;15.920;2022-09-09T06:10:35;5.72;;;2.50;;
17595;SDS011;8916;47.086;15.920;2022-09-09T06:13:04;4.95;;;2.25;;
17595;SDS011;8916;47.086;15.920;2022-09-09T06:15:33;6.38;;;2.72;;
17595;SDS011;8916;47.086;15.920;2022-09-09T06:18:03;8.55;;;2.10;;
17595;SDS011;8916;47.086;15.920;2022-09-09T06:20:32;4.88;;;1.90;;
17595;SDS011;8916;47.086;15.920;2022-09-09T06:23:03;5.45;;;2.00;;
17595;SDS011;8916;47.086;15.920;2022-09-09T06:25:33;4.25;;;1.70;;
17595;SDS011;8916;47.086;15.920;2022-09-09T06:28:03;5.82;;;1.98;;
17595;SDS011;8916;47.086;15.920;2022-09-09T06:30:32;7.28;;;1.80;;
17595;SDS011;8916;47.086;15.920;2022-09-09T06:33:01;9.38;;;1.75;;
17595;SDS011;8916;47.086;15.920;2022-09-09T06:35:31;3.80;;;1.70;;
17595;SDS011;8916;47.086;15.920;2022-09-09T06:38:00;4.32;;;1.88;;
17595;SDS011;8916;47.086;15.920;2022-09-09T06:40:30;4.50;;;2.03;;
17595;SDS011;8916;47.086;15.920;2022-09-09T06:43:00;5.90;;;1.98;;
17595;SDS011;8916;47.086;15.920;2022-09-09T06:45:40;9.70;;;1.92;;
17595;SDS011;8916;47.086;15.920;2022-09-09T06:48:10;5.63;;;1.63;;
17595;SDS011;8916;47.086;15.920;2022-09-09T06:50:39;7.78;;;2.50;;
17595;SDS011;8916;47.086;15.920;2022-09-09T06:53:08;7.30;;;2.80;;
17595;SDS011;8916;47.086;15.920;2022-09-09T06:55:37;7.05;;;2.88;;
17595;SDS011;8916;47.086;15.920;2022-09-09T06:58:09;5.05;;;2.60;;
17595;SDS011;8916;47.086;15.920;2022-09-09T07:00:38;5.70;;;2.30;;
17595;SDS011;8916;47.086;15.920;2022-09-09T07:03:09;5.90;;;2.42;;
17595;SDS011;8916;47.086;15.920;2022-09-09T07:05:39;5.68;;;2.15;;
17595;SDS011;8916;47.086;15.920;2022-09-09T07:08:08;6.88;;;2.10;;
17595;SDS011;8916;47.086;15.920;2022-09-09T07:10:39;6.22;;;1.77;;
17595;SDS011;8916;47.086;15.920;2022-09-09T07:13:10;2.03;;;1.23;;
17595;SDS011;8916;47.086;15.920;2022-09-09T07:15:41;5.75;;;1.80;;
17595;SDS011;8916;47.086;15.920;2022-09-09T07:18:10;4.15;;;1.70;;
17595;SDS011;8916;47.086;15.920;2022-09-09T07:20:40;6.55;;;1.58;;
17595;SDS011;8916;47.086;15.920;2022-09-09T07:23:09;5.32;;;1.63;;
17595;SDS011;8916;47.086;15.920;2022-09-09T07:25:43;5.80;;;1.80;;
17595;SDS011;8916;47.086;15.920;2022-09-09T07:28:17;4.82;;;1.48;;
17595;SDS011;8916;47.086;15.920;2022-09-09T07:30:52;4.70;;;1.40;;
17595;SDS011;8916;47.086;15.920;2022-09-09T07:33:24;3.88;;;1.52;;
17595;SDS011;8916;47.086;15.920;2022-09-09T07:35:53;5.35;;;1.23;;
17595;SDS011;8916;47.086;15.920;2022-09-09T07:38:30;3.83;;;1.25;;
17595;SDS011;8916;47.086;15.920;2022-09-09T07:41:03;5.57;;;1.20;;
17595;SDS011;8916;47.086;15.920;2022-09-09T07:43:38;5.25;;;1.73;;
17595;SDS011;8916;47.086;15.920;2022-09-09T07:46:08;5.63;;;1.63;;
17595;SDS011;8916;47.086;15.920;2022-09-09T07:48:43;3.05;;;1.25;;
17595;SDS011;8916;47.086;15.920;2022-09-09T07:51:14;3.30;;;1.55;;
17595;SDS011;8916;47.086;15.920;2022-09-09T07:53:48;1.98;;;1.45;;
17595;SDS011;8916;47.086;15.920;2022-09-09T07:56:20;4.40;;;1.65;;
17595;SDS011;8916;47.086;15.920;2022-09-09T07:58:52;3.47;;;1.15;;
17595;SDS011;8916;47.086;15.920;2022-09-09T08:01:25;4.45;;;1.38;;
17595;SDS011;8916;47.086;15.920;2022-09-09T08:03:59;4.65;;;1.40;;
17595;SDS011;8916;47.086;15.920;2022-09-09T08:06:35;5.88;;;1.17;;
17595;SDS011;8916;47.086;15.920;2022-09-09T08:09:09;5.22;;;1.60;;
17595;SDS011;8916;47.086;15.920;2022-09-09T08:11:39;5.40;;;1.38;;
17595;SDS011;8916;47.086;15.920;2022-09-09T08:14:12;4.82;;;1.55;;
17595;SDS011;8916;47.086;15.920;2022-09-09T08:16:43;3.65;;;1.52;;
17595;SDS011;8916;47.086;15.920;2022-09-09T08:19:17;5.82;;;1.60;;
17595;SDS011;8916;47.086;15.920;2022-09-09T08:21:47;3.00;;;1.42;;
17595;SDS011;8916;47.086;15.920;2022-09-09T08:24:18;3.72;;;1.30;;
17595;SDS011;8916;47.086;15.920;2022-09-09T08:26:49;6.38;;;1.42;;
17595;SDS011;8916;47.086;15.920;2022-09-09T08:29:23;1.92;;;1.10;;
17595;SDS011;8916;47.086;15.920;2022-09-09T08:31:54;1.75;;;1.30;;
17595;SDS011;8916;47.086;15.920;2022-09-09T08:34:27;5.75;;;1.30;;
17595;SDS011;8916;47.086;15.920;2022-09-09T08:37:03;7.18;;;1.45;;
17595;SDS011;8916;47.086;15.920;2022-09-09T08:39:38;4.85;;;1.70;;
17595;SDS011;8916;47.086;15.920;2022-09-09T08:45:12;3.78;;;1.35;;
17595;SDS011;8916;47.086;15.920;2022-09-09T08:48:01;1.43;;;1.00;;
17595;SDS011;8916;47.086;15.920;2022-09-09T08:50:49;5.00;;;1.80;;
17595;SDS011;8916;47.086;15.920;2022-09-09T08:53:27;3.05;;;1.27;;
17595;SDS011;8916;47.086;15.920;2022-09-09T08:56:01;2.28;;;1.23;;
17595;SDS011;8916;47.086;15.920;2022-09-09T08:58:44;4.78;;;1.35;;
17595;SDS011;8916;47.086;15.920;2022-09-09T09:01:28;3.35;;;1.15;;
17595;SDS011;8916;47.086;15.920;2022-09-09T09:04:27;3.47;;;1.45;;
17595;SDS011;8916;47.086;15.920;2022-09-09T09:07:11;2.17;;;1.38;;
17595;SDS011;8916;47.086;15.920;2022-09-09T09:10:00;1.90;;;1.23;;
17595;SDS011;8916;47.086;15.920;2022-09-09T09:12:59;3.30;;;1.40;;
17595;SDS011;8916;47.086;15.920;2022-09-09T09:15:31;1.80;;;1.10;;
17595;SDS011;8916;47.086;15.920;2022-09-09T09:18:08;4.00;;;1.80;;
17595;SDS011;8916;47.086;15.920;2022-09-09T09:20:47;2.90;;;1.52;;
17595;SDS011;8916;47.086;15.920;2022-09-09T09:23:29;2.35;;;1.45;;
17595;SDS011;8916;47.086;15.920;2022-09-09T09:26:09;2.33;;;1.27;;
17595;SDS011;8916;47.086;15.920;2022-09-09T09:28:44;5.95;;;1.50;;
17595;SDS011;8916;47.086;15.920;2022-09-09T09:31:16;1.63;;;1.13;;
17595;SDS011;8916;47.086;15.920;2022-09-09T09:33:52;3.53;;;1.50;;
17595;SDS011;8916;47.086;15.920;2022-09-09T09:36:32;2.75;;;1.45;;
17595;SDS011;8916;47.086;15.920;2022-09-09T09:39:06;4.07;;;1.50;;
17595;SDS011;8916;47.086;15.920;2022-09-09T09:41:59;2.38;;;1.27;;
17595;SDS011;8916;47.086;15.920;2022-09-09T09:44:45;2.30;;;1.20;;
17595;SDS011;8916;47.086;15.920;2022-09-09T09:47:18;5.53;;;1.27;;
17595;SDS011;8916;47.086;15.920;2022-09-09T09:50:19;2.88;;;1.30;;
17595;SDS011;8916;47.086;15.920;2022-09-09T09:55:33;2.97;;;1.20;;
17595;SDS011;8916;47.086;15.920;2022-09-09T09:58:06;1.80;;;1.20;;
17595;SDS011;8916;47.086;15.920;2022-09-09T10:00:49;2.25;;;1.33;;
17595;SDS011;8916;47.086;15.920;2022-09-09T10:03:25;2.78;;;1.40;;
17595;SDS011;8916;47.086;15.920;2022-09-09T10:06:00;2.10;;;1.25;;
17595;SDS011;8916;47.086;15.920;2022-09-09T10:08:29;2.30;;;1.30;;
17595;SDS011;8916;47.086;15.920;2022-09-09T10:11:17;2.10;;;1.52;;
17595;SDS011;8916;47.086;15.920;2022-09-09T10:14:00;4.80;;;1.30;;
17595;SDS011;8916;47.086;15.920;2022-09-09T10:16:46;1.95;;;1.10;;
17595;SDS011;8916;47.086;15.920;2022-09-09T10:19:31;3.03;;;1.27;;
17595;SDS011;8916;47.086;15.920;2022-09-09T10:22:07;5.07;;;1.25;;
17595;SDS011;8916;47.086;15.920;2022-09-09T10:24:58;7.03;;;1.63;;
17595;SDS011;8916;47.086;15.920;2022-09-09T10:27:45;3.60;;;1.20;;
17595;SDS011;8916;47.086;15.920;2022-09-09T10:30:34;4.65;;;1.00;;
17595;SDS011;8916;47.086;15.920;2022-09-09T10:33:18;5.25;;;1.40;;
17595;SDS011;8916;47.086;15.920;2022-09-09T10:36:01;3.50;;;1.00;;
17595;SDS011;8916;47.086;15.920;2022-09-09T10:38:54;1.52;;;1.27;;
17595;SDS011;8916;47.086;15.920;2022-09-09T10:41:34;2.13;;;1.23;;
17595;SDS011;8916;47.086;15.920;2022-09-09T10:44:21;1.92;;;1.20;;
17595;SDS011;8916;47.086;15.920;2022-09-09T10:47:20;3.08;;;1.00;;
17595;SDS011;8916;47.086;15.920;2022-09-09T10:50:27;2.15;;;1.20;;
17595;SDS011;8916;47.086;15.920;2022-09-09T10:53:35;1.90;;;1.15;;
17595;SDS011;8916;47.086;15.920;2022-09-09T10:56:16;2.03;;;1.25;;
17595;SDS011;8916;47.086;15.920;2022-09-09T10:58:49;1.92;;;1.40;;
17595;SDS011;8916;47.086;15.920;2022-09-09T11:01:25;1.23;;;1.07;;
17595;SDS011;8916;47.086;15.920;2022-09-09T11:04:01;1.20;;;1.05;;
17595;SDS011;8916;47.086;15.920;2022-09-09T11:06:42;1.65;;;1.30;;
17595;SDS011;8916;47.086;15.920;2022-09-09T11:09:21;4.55;;;1.48;;
17595;SDS011;8916;47.086;15.920;2022-09-09T11:11:56;1.77;;;1.20;;
17595;SDS011;8916;47.086;15.920;2022-09-09T11:14:28;2.00;;;1.10;;
17595;SDS011;8916;47.086;15.920;2022-09-09T11:17:06;2.33;;;1.02;;
17595;SDS011;8916;47.086;15.920;2022-09-09T11:19:43;1.67;;;1.13;;
17595;SDS011;8916;47.086;15.920;2022-09-09T11:22:20;7.80;;;1.20;;
17595;SDS011;8916;47.086;15.920;2022-09-09T11:24:57;2.33;;;1.25;;
17595;SDS011;8916;47.086;15.920;2022-09-09T11:27:36;1.33;;;1.10;;
17595;SDS011;8916;47.086;15.920;2022-09-09T11:30:19;2.58;;;1.33;;
17595;SDS011;8916;47.086;15.920;2022-09-09T11:33:23;2.13;;;1.35;;
17595;SDS011;8916;47.086;15.920;2022-09-09T11:40:07;4.60;;;1.40;;
17595;SDS011;8916;47.086;15.920;2022-09-09T11:42:48;11.65;;;1.50;;
17595;SDS011;8916;47.086;15.920;2022-09-09T11:45:21;5.95;;;1.40;;
17595;SDS011;8916;47.086;15.920;2022-09-09T11:47:55;3.72;;;1.30;;
17595;SDS011;8916;47.086;15.920;2022-09-09T11:50:29;3.80;;;1.30;;
17595;SDS011;8916;47.086;15.920;2022-09-09T11:53:14;2.53;;;1.20;;
17595;SDS011;8916;47.086;15.920;2022-09-09T11:56:01;3.45;;;1.42;;
17595;SDS011;8916;47.086;15.920;2022-09-09T11:58:38;3.85;;;1.60;;
17595;SDS011;8916;47.086;15.920;2022-09-09T12:01:29;2.25;;;1.20;;
17595;SDS011;8916;47.086;15.920;2022-09-09T12:07:22;3.60;;;1.50;;
17595;SDS011;8916;47.086;15.920;2022-09-09T12:09:59;1.65;;;1.17;;
17595;SDS011;8916;47.086;15.920;2022-09-09T12:12:34;4.15;;;1.58;;
17595;SDS011;8916;47.086;15.920;2022-09-09T12:15:25;1.70;;;1.02;;
17595;SDS011;8916;47.086;15.920;2022-09-09T12:17:57;2.05;;;1.30;;
17595;SDS011;8916;47.086;15.920;2022-09-09T12:20:34;3.30;;;1.30;;
17595;SDS011;8916;47.086;15.920;2022-09-09T12:23:12;4.88;;;1.35;;
17595;SDS011;8916;47.086;15.920;2022-09-09T12:26:04;2.40;;;1.25;;
17595;SDS011;8916;47.086;15.920;2022-09-09T12:29:10;2.53;;;1.20;;
17595;SDS011;8916;47.086;15.920;2022-09-09T12:31:56;4.65;;;1.33;;
17595;SDS011;8916;47.086;15.920;2022-09-09T12:34:36;2.40;;;1.20;;
17595;SDS011;8916;47.086;15.920;2022-09-09T12:37:13;3.58;;;0.98;;
17595;SDS011;8916;47.086;15.920;2022-09-09T12:39:49;2.05;;;1.23;;
17595;SDS011;8916;47.086;15.920;2022-09-09T12:42:24;3.65;;;1.13;;
17595;SDS011;8916;47.086;15.920;2022-09-09T12:44:57;2.42;;;1.55;;
17595;SDS011;8916;47.086;15.920;2022-09-09T12:47:36;3.03;;;1.30;;
17595;SDS011;8916;47.086;15.920;2022-09-09T12:50:17;1.67;;;1.40;;
17595;SDS011;8916;47.086;15.920;2022-09-09T12:52:53;6.00;;;1.40;;
17595;SDS011;8916;47.086;15.920;2022-09-09T12:55:27;1.92;;;1.10;;
17595;SDS011;8916;47.086;15.920;2022-09-09T12:58:00;2.38;;;1.20;;
17595;SDS011;8916;47.086;15.920;2022-09-09T13:00:34;2.78;;;1.10;;
17595;SDS011;8916;47.086;15.920;2022-09-09T13:03:16;1.58;;;1.25;;
17595;SDS011;8916;47.086;15.920;2022-09-09T13:05:48;1.52;;;1.20;;
17595;SDS011;8916;47.086;15.920;2022-09-09T13:08:19;6.25;;;1.58;;
17595;SDS011;8916;47.086;15.920;2022-09-09T13:10:53;2.13;;;1.20;;
17595;SDS011;8916;47.086;15.920;2022-09-09T13:13:29;1.77;;;1.40;;
17595;SDS011;8916;47.086;15.920;2022-09-09T13:16:17;2.92;;;1.30;;
17595;SDS011;8916;47.086;15.920;2022-09-09T13:18:51;2.50;;;1.10;;
17595;SDS011;8916;47.086;15.920;2022-09-09T13:21:33;3.70;;;1.35;;
17595;SDS011;8916;47.086;15.920;2022-09-09T13:24:05;3.97;;;1.40;;
17595;SDS011;8916;47.086;15.920;2022-09-09T13:26:56;2.25;;;1.23;;
17595;SDS011;8916;47.086;15.920;2022-09-09T13:29:31;3.10;;;1.20;;
17595;SDS011;8916;47.086;15.920;2022-09-09T13:32:05;1.65;;;1.20;;
17595;SDS011;8916;47.086;15.920;2022-09-09T13:34:36;1.70;;;0.88;;
17595;SDS011;8916;47.086;15.920;2022-09-09T13:37:16;2.95;;;1.30;;
17595;SDS011;8916;47.086;15.920;2022-09-09T13:39:52;2.45;;;1.35;;
17595;SDS011;8916;47.086;15.920;2022-09-09T13:42:24;1.58;;;1.30;;
17595;SDS011;8916;47.086;15.920;2022-09-09T13:44:55;2.75;;;1.20;;
17595;SDS011;8916;47.086;15.920;2022-09-09T13:47:29;1.27;;;1.15;;
17595;SDS011;8916;47.086;15.920;2022-09-09T13:50:15;4.05;;;1.45;;
17595;SDS011;8916;47.086;15.920;2022-09-09T13:52:48;2.73;;;1.47;;
17595;SDS011;8916;47.086;15.920;2022-09-09T13:55:18;4.10;;;1.50;;
17595;SDS011;8916;47.086;15.920;2022-09-09T13:57:50;2.58;;;1.30;;
17595;SDS011;8916;47.086;15.920;2022-09-09T14:00:24;2.28;;;1.20;;
17595;SDS011;8916;47.086;15.920;2022-09-09T14:02:53;4.05;;;1.63;;
17595;SDS011;8916;47.086;15.920;2022-09-09T14:05:24;3.28;;;1.45;;
17595;SDS011;8916;47.086;15.920;2022-09-09T14:07:54;2.80;;;1.48;;
17595;SDS011;8916;47.086;15.920;2022-09-09T14:10:23;2.60;;;1.50;;
17595;SDS011;8916;47.086;15.920;2022-09-09T14:12:52;6.20;;;1.50;;
17595;SDS011;8916;47.086;15.920;2022-09-09T14:15:21;6.47;;;1.40;;
17595;SDS011;8916;47.086;15.920;2022-09-09T14:17:51;5.05;;;1.30;;
17595;SDS011;8916;47.086;15.920;2022-09-09T14:20:20;2.80;;;1.38;;
17595;SDS011;8916;47.086;15.920;2022-09-09T14:22:52;3.28;;;1.50;;
17595;SDS011;8916;47.086;15.920;2022-09-09T14:25:22;2.25;;;1.50;;
17595;SDS011;8916;47.086;15.920;2022-09-09T14:27:51;2.80;;;1.65;;
17595;SDS011;8916;47.086;15.920;2022-09-09T14:30:21;5.50;;;1.80;;
17595;SDS011;8916;47.086;15.920;2022-09-09T14:32:50;3.42;;;1.40;;
17595;SDS011;8916;47.086;15.920;2022-09-09T14:35:19;4.65;;;1.77;;
17595;SDS011;8916;47.086;15.920;2022-09-09T14:37:49;3.22;;;1.77;;
17595;SDS011;8916;47.086;15.920;2022-09-09T14:40:20;3.47;;;1.85;;
17595;SDS011;8916;47.086;15.920;2022-09-09T14:42:52;3.45;;;1.70;;
17595;SDS011;8916;47.086;15.920;2022-09-09T14:45:23;2.97;;;1.52;;
17595;SDS011;8916;47.086;15.920;2022-09-09T14:47:54;4.55;;;2.00;;
17595;SDS011;8916;47.086;15.920;2022-09-09T14:50:24;6.30;;;1.88;;
17595;SDS011;8916;47.086;15.920;2022-09-09T14:52:54;3.03;;;1.60;;
17595;SDS011;8916;47.086;15.920;2022-09-09T14:55:25;3.65;;;1.55;;
17595;SDS011;8916;47.086;15.920;2022-09-09T14:57:56;4.68;;;1.75;;
17595;SDS011;8916;47.086;15.920;2022-09-09T15:00:27;3.65;;;1.85;;
17595;SDS011;8916;47.086;15.920;2022-09-09T15:02:56;5.45;;;1.70;;
17595;SDS011;8916;47.086;15.920;2022-09-09T15:05:26;3.05;;;1.63;;
17595;SDS011;8916;47.086;15.920;2022-09-09T15:07:56;2.38;;;1.85;;
17595;SDS011;8916;47.086;15.920;2022-09-09T15:10:28;4.75;;;2.05;;
17595;SDS011;8916;47.086;15.920;2022-09-09T15:12:58;4.95;;;1.73;;
17595;SDS011;8916;47.086;15.920;2022-09-09T15:15:27;6.53;;;1.90;;
17595;SDS011;8916;47.086;15.920;2022-09-09T15:17:57;5.63;;;1.88;;
17595;SDS011;8916;47.086;15.920;2022-09-09T15:20:27;11.48;;;2.00;;
17595;SDS011;8916;47.086;15.920;2022-09-09T15:25:37;3.20;;;1.65;;
17595;SDS011;8916;47.086;15.920;2022-09-09T15:28:08;3.00;;;1.90;;
17595;SDS011;8916;47.086;15.920;2022-09-09T15:30:37;7.90;;;2.25;;
17595;SDS011;8916;47.086;15.920;2022-09-09T15:33:07;5.03;;;1.90;;
17595;SDS011;8916;47.086;15.920;2022-09-09T15:35:39;4.40;;;1.85;;
17595;SDS011;8916;47.086;15.920;2022-09-09T15:38:08;11.23;;;2.47;;
17595;SDS011;8916;47.086;15.920;2022-09-09T15:40:39;5.30;;;2.05;;
17595;SDS011;8916;47.086;15.920;2022-09-09T15:43:08;4.95;;;2.42;;
17595;SDS011;8916;47.086;15.920;2022-09-09T15:45:40;6.32;;;2.40;;
17595;SDS011;8916;47.086;15.920;2022-09-09T15:48:09;6.28;;;2.90;;
17595;SDS011;8916;47.086;15.920;2022-09-09T15:50:38;3.20;;;2.15;;
17595;SDS011;8916;47.086;15.920;2022-09-09T15:53:08;8.52;;;2.15;;